Wetterdaten: Woche 08.04.13 - 14.04.13 (KW15)
Datum Zeit Temp. Aussen +5cm Feuchte Auss Luftdruck Regen Sonnenschein Regendauer UV Solar Windben
08.04.2013 00:00 3,9 C 1,1 C 61 % 1013,8 hPa 0,0 l/m 0,00 h 0,00 h 0,0 UV-I 0 W/m 0,0 km/h (0 Bft)
08.04.2013 01:00 2,7 C 0,1 C 65 % 1012,9 hPa 0,0 l/m 0,00 h 0,00 h 0,0 UV-I 0 W/m 0,0 km/h (0 Bft)
08.04.2013 02:00 2,3 C 0,7 C 70 % 1011,9 hPa 0,0 l/m 0,00 h 0,00 h 0,0 UV-I 0 W/m 0,3 km/h (0 Bft)
08.04.2013 03:00 2,5 C 0,4 C 70 % 1011,2 hPa 0,0 l/m 0,00 h 0,00 h 0,0 UV-I 0 W/m 0,4 km/h (0 Bft)
08.04.2013 04:00 2,2 C -0,2 C 70 % 1010,5 hPa 0,0 l/m 0,00 h 0,00 h 0,0 UV-I 0 W/m 0,0 km/h (0 Bft)
08.04.2013 05:00 1,4 C -0,9 C 71 % 1010,2 hPa 0,0 l/m 0,00 h 0,00 h 0,0 UV-I 0 W/m 0,0 km/h (0 Bft)
08.04.2013 06:00 0,7 C -1,4 C 75 % 1010,2 hPa 0,0 l/m 0,00 h 0,00 h 0,0 UV-I 0 W/m 0,0 km/h (0 Bft)
08.04.2013 07:00 0,3 C -0,8 C 78 % 1009,8 hPa 0,0 l/m 0,00 h 0,00 h 0,0 UV-I 23 W/m 0,2 km/h (0 Bft)
08.04.2013 08:00 2,1 C 2,3 C 74 % 1009,2 hPa 0,0 l/m 0,00 h 0,00 h 0,0 UV-I 76 W/m 1,8 km/h (1 Bft)
08.04.2013 09:00 4,4 C 4,8 C 70 % 1008,6 hPa 0,0 l/m 0,00 h 0,00 h 0,0 UV-I 149 W/m 3,4 km/h (1 Bft)
08.04.2013 10:00 6,6 C 7,4 C 62 % 1008,2 hPa 0,0 l/m 0,23 h 0,00 h 0,6 UV-I 244 W/m 11,1 km/h (2 Bft)
08.04.2013 11:00 8,8 C 9,5 C 53 % 1007,4 hPa 0,0 l/m 0,77 h 0,00 h 1,1 UV-I 450 W/m 19,2 km/h (3 Bft)
08.04.2013 12:00 10,3 C 11,2 C 46 % 1006,2 hPa 0,0 l/m 0,87 h 0,00 h 1,5 UV-I 520 W/m 25,3 km/h (4 Bft)
08.04.2013 13:00 10,8 C 11,9 C 45 % 1005,4 hPa 0,0 l/m 0,63 h 0,00 h 1,3 UV-I 458 W/m 21,1 km/h (4 Bft)
08.04.2013 14:00 10,8 C 11,2 C 46 % 1004,5 hPa 0,0 l/m 0,13 h 0,00 h 0,7 UV-I 321 W/m 18,2 km/h (3 Bft)
08.04.2013 15:00 11,1 C 11,6 C 44 % 1003,8 hPa 0,0 l/m 0,17 h 0,00 h 0,6 UV-I 303 W/m 18,1 km/h (3 Bft)
08.04.2013 16:00 11,1 C 11,1 C 46 % 1003,2 hPa 0,0 l/m 0,00 h 0,00 h 0,6 UV-I 175 W/m 17,6 km/h (3 Bft)
08.04.2013 17:00 10,4 C 9,7 C 48 % 1002,8 hPa 0,0 l/m 0,00 h 0,00 h 0,0 UV-I 84 W/m 14,0 km/h (3 Bft)
08.04.2013 18:00 10,0 C 8,9 C 50 % 1002,6 hPa 0,0 l/m 0,00 h 0,00 h 0,0 UV-I 47 W/m 7,3 km/h (2 Bft)
08.04.2013 19:00 9,1 C 7,4 C 61 % 1002,8 hPa 0,0 l/m 0,00 h 0,07 h 0,0 UV-I 16 W/m 14,9 km/h (3 Bft)
08.04.2013 20:00 7,6 C 5,5 C 75 % 1003,3 hPa 0,0 l/m 0,00 h 0,63 h 0,0 UV-I 6 W/m 15,7 km/h (3 Bft)
08.04.2013 21:00 6,2 C 4,0 C 87 % 1003,8 hPa 1,4 l/m 0,00 h 0,97 h 0,0 UV-I 0 W/m 1,8 km/h (1 Bft)
08.04.2013 22:00 5,4 C 3,6 C 92 % 1003,6 hPa 0,2 l/m 0,00 h 0,77 h 0,0 UV-I 0 W/m 2,4 km/h (1 Bft)
08.04.2013 23:00 5,0 C 3,4 C 94 % 1003,3 hPa 0,0 l/m 0,00 h 0,43 h 0,0 UV-I 0 W/m 1,1 km/h (1 Bft)
09.04.2013 00:00 4,5 C 2,5 C 95 % 1003,0 hPa 0,0 l/m 0,00 h 0,00 h 0,0 UV-I 0 W/m 0,3 km/h (0 Bft)
09.04.2013 01:00 3,9 C 1,9 C 95 % 1002,5 hPa 0,0 l/m 0,00 h 0,00 h 0,0 UV-I 0 W/m 0,1 km/h (0 Bft)
09.04.2013 02:00 3,3 C 1,2 C 95 % 1002,1 hPa 0,0 l/m 0,00 h 0,00 h 0,0 UV-I 0 W/m 0,0 km/h (0 Bft)
09.04.2013 03:00 2,8 C 0,5 C 96 % 1001,8 hPa 0,0 l/m 0,00 h 0,00 h 0,0 UV-I 0 W/m 0,0 km/h (0 Bft)
09.04.2013 04:00 2,0 C -0,4 C 96 % 1001,5 hPa 0,0 l/m 0,00 h 0,00 h 0,0 UV-I 0 W/m 0,1 km/h (0 Bft)
09.04.2013 05:00 1,3 C 0,0 C 96 % 1001,3 hPa 0,0 l/m 0,00 h 0,00 h 0,0 UV-I 0 W/m 0,0 km/h (0 Bft)
09.04.2013 06:00 1,4 C 0,4 C 97 % 1001,1 hPa 0,0 l/m 0,00 h 0,00 h 0,0 UV-I 0 W/m 0,6 km/h (0 Bft)
09.04.2013 07:00 1,8 C 1,1 C 98 % 1001,1 hPa 0,2 l/m 0,00 h 0,10 h 0,0 UV-I 19 W/m 2,7 km/h (1 Bft)
09.04.2013 08:00 2,8 C 2,5 C 99 % 1001,0 hPa 0,0 l/m 0,00 h 0,00 h 0,0 UV-I 70 W/m 5,7 km/h (1 Bft)
09.04.2013 09:00 4,4 C 4,6 C 100 % 1000,4 hPa 0,0 l/m 0,00 h 0,00 h 0,0 UV-I 148 W/m 9,4 km/h (2 Bft)
09.04.2013 10:00 6,2 C 6,6 C 98 % 1000,0 hPa 0,0 l/m 0,03 h 0,00 h 0,5 UV-I 240 W/m 17,7 km/h (3 Bft)
09.04.2013 11:00 8,2 C 8,7 C 88 % 999,8 hPa 0,0 l/m 0,00 h 0,00 h 0,7 UV-I 271 W/m 21,4 km/h (4 Bft)
09.04.2013 12:00 8,4 C 7,2 C 88 % 999,7 hPa 0,6 l/m 0,00 h 0,73 h 0,6 UV-I 146 W/m 16,0 km/h (3 Bft)
09.04.2013 13:00 7,8 C 6,7 C 94 % 999,4 hPa 0,6 l/m 0,00 h 0,83 h 0,5 UV-I 125 W/m 10,5 km/h (2 Bft)
09.04.2013 14:00 8,8 C 8,3 C 94 % 998,8 hPa 0,0 l/m 0,00 h 0,23 h 0,9 UV-I 253 W/m 15,0 km/h (3 Bft)
09.04.2013 15:00 8,9 C 7,2 C 88 % 998,7 hPa 0,0 l/m 0,00 h 0,53 h 0,0 UV-I 137 W/m 19,5 km/h (3 Bft)
09.04.2013 16:00 8,9 C 7,5 C 90 % 998,7 hPa 0,2 l/m 0,00 h 0,23 h 0,6 UV-I 142 W/m 15,5 km/h (3 Bft)
09.04.2013 17:00 8,7 C 7,5 C 92 % 998,5 hPa 0,0 l/m 0,03 h 0,27 h 0,0 UV-I 122 W/m 10,1 km/h (2 Bft)
09.04.2013 18:00 9,1 C 7,9 C 90 % 998,4 hPa 0,0 l/m 0,00 h 0,00 h 0,0 UV-I 78 W/m 9,5 km/h (2 Bft)
09.04.2013 19:00 9,1 C 6,9 C 88 % 998,6 hPa 0,0 l/m 0,03 h 0,17 h 0,0 UV-I 34 W/m 4,3 km/h (1 Bft)
09.04.2013 20:00 8,8 C 6,6 C 89 % 998,8 hPa 0,0 l/m 0,00 h 0,00 h 0,0 UV-I 7 W/m 3,0 km/h (1 Bft)
09.04.2013 21:00 7,8 C 5,8 C 91 % 999,0 hPa 0,0 l/m 0,00 h 0,00 h 0,0 UV-I 0 W/m 7,4 km/h (2 Bft)
09.04.2013 22:00 7,6 C 6,2 C 91 % 999,1 hPa 0,0 l/m 0,00 h 0,00 h 0,0 UV-I 0 W/m 5,2 km/h (1 Bft)
09.04.2013 23:00 7,5 C 5,9 C 90 % 999,3 hPa 0,0 l/m 0,00 h 0,00 h 0,0 UV-I 0 W/m 5,0 km/h (1 Bft)
10.04.2013 00:00 7,2 C 5,4 C 90 % 999,6 hPa 0,0 l/m 0,00 h 0,00 h 0,0 UV-I 0 W/m 6,4 km/h (2 Bft)
10.04.2013 01:00 6,3 C 3,9 C 90 % 999,6 hPa 0,0 l/m 0,00 h 0,00 h 0,0 UV-I 0 W/m 2,6 km/h (1 Bft)
10.04.2013 02:00 5,6 C 3,7 C 93 % 999,8 hPa 0,0 l/m 0,00 h 0,00 h 0,0 UV-I 0 W/m 2,6 km/h (1 Bft)
10.04.2013 03:00 5,6 C 4,4 C 95 % 1000,1 hPa 0,0 l/m 0,00 h 0,00 h 0,0 UV-I 0 W/m 1,8 km/h (1 Bft)
10.04.2013 04:00 5,9 C 4,8 C 95 % 1000,4 hPa 0,0 l/m 0,00 h 0,03 h 0,0 UV-I 0 W/m 0,3 km/h (0 Bft)
10.04.2013 05:00 6,3 C 4,8 C 95 % 1000,8 hPa 0,0 l/m 0,00 h 0,00 h 0,0 UV-I 0 W/m 0,3 km/h (0 Bft)
10.04.2013 06:00 6,6 C 5,2 C 96 % 1001,1 hPa 0,0 l/m 0,00 h 0,07 h 0,0 UV-I 0 W/m 0,2 km/h (0 Bft)
10.04.2013 07:00 7,1 C 5,9 C 96 % 1001,5 hPa 0,0 l/m 0,00 h 0,03 h 0,0 UV-I 15 W/m 2,7 km/h (1 Bft)
10.04.2013 08:00 7,6 C 6,9 C 96 % 1002,2 hPa 0,0 l/m 0,00 h 0,00 h 0,0 UV-I 39 W/m 6,2 km/h (2 Bft)
10.04.2013 09:00 8,3 C 7,7 C 94 % 1002,4 hPa 0,0 l/m 0,00 h 0,13 h 0,0 UV-I 93 W/m 7,2 km/h (2 Bft)
10.04.2013 10:00 9,2 C 9,2 C 91 % 1002,8 hPa 0,0 l/m 0,00 h 0,00 h 0,0 UV-I 140 W/m 8,5 km/h (2 Bft)
10.04.2013 11:00 9,5 C 8,5 C 90 % 1003,5 hPa 0,0 l/m 0,00 h 0,67 h 0,0 UV-I 138 W/m 9,3 km/h (2 Bft)
10.04.2013 12:00 9,3 C 7,8 C 94 % 1003,8 hPa 0,8 l/m 0,00 h 0,57 h 0,0 UV-I 92 W/m 4,3 km/h (1 Bft)
10.04.2013 13:00 9,1 C 8,1 C 95 % 1004,3 hPa 0,0 l/m 0,00 h 0,00 h 0,0 UV-I 153 W/m 8,7 km/h (2 Bft)
10.04.2013 14:00 9,3 C 8,1 C 93 % 1004,8 hPa 0,0 l/m 0,10 h 0,40 h 1,1 UV-I 166 W/m 11,5 km/h (2 Bft)
10.04.2013 15:00 9,7 C 8,2 C 90 % 1005,2 hPa 0,4 l/m 0,00 h 0,37 h 0,9 UV-I 105 W/m 12,6 km/h (3 Bft)
10.04.2013 16:00 9,3 C 8,3 C 94 % 1005,6 hPa 0,2 l/m 0,00 h 0,17 h 0,0 UV-I 150 W/m 10,4 km/h (2 Bft)
10.04.2013 17:00 9,7 C 7,9 C 86 % 1006,0 hPa 0,0 l/m 0,00 h 0,00 h 0,0 UV-I 96 W/m 10,5 km/h (2 Bft)
10.04.2013 18:00 9,6 C 8,3 C 86 % 1006,4 hPa 0,0 l/m 0,00 h 0,00 h 0,0 UV-I 80 W/m 10,3 km/h (2 Bft)
10.04.2013 19:00 9,1 C 7,6 C 85 % 1006,5 hPa 0,0 l/m 0,00 h 0,00 h 0,0 UV-I 35 W/m 8,4 km/h (2 Bft)
10.04.2013 20:00 8,5 C 6,3 C 87 % 1006,5 hPa 0,0 l/m 0,00 h 0,00 h 0,0 UV-I 9 W/m 1,6 km/h (1 Bft)
10.04.2013 21:00 7,8 C 6,1 C 90 % 1006,5 hPa 0,0 l/m 0,00 h 0,00 h 0,0 UV-I 0 W/m 0,0 km/h (0 Bft)
10.04.2013 22:00 7,5 C 5,7 C 92 % 1006,3 hPa 0,0 l/m 0,00 h 0,00 h 0,0 UV-I 0 W/m 0,0 km/h (0 Bft)
10.04.2013 23:00 7,1 C 5,6 C 93 % 1006,0 hPa 0,0 l/m 0,00 h 0,00 h 0,0 UV-I 0 W/m 1,9 km/h (1 Bft)
11.04.2013 00:00 6,9 C 5,4 C 95 % 1005,2 hPa 0,0 l/m 0,00 h 0,80 h 0,0 UV-I 0 W/m 6,2 km/h (2 Bft)
11.04.2013 01:00 7,0 C 5,6 C 96 % 1004,0 hPa 0,6 l/m 0,00 h 0,93 h 0,0 UV-I 0 W/m 7,0 km/h (2 Bft)
11.04.2013 02:00 7,0 C 5,7 C 97 % 1002,3 hPa 0,8 l/m 0,00 h 1,00 h 0,0 UV-I 0 W/m 8,6 km/h (2 Bft)
11.04.2013 03:00 7,0 C 5,7 C 98 % 1000,4 hPa 1,4 l/m 0,00 h 0,90 h 0,0 UV-I 0 W/m 14,8 km/h (3 Bft)
11.04.2013 04:00 7,2 C 5,9 C 99 % 999,0 hPa 0,6 l/m 0,00 h 0,60 h 0,0 UV-I 0 W/m 17,3 km/h (3 Bft)
11.04.2013 05:00 7,4 C 6,2 C 99 % 997,7 hPa 0,8 l/m 0,00 h 0,63 h 0,0 UV-I 0 W/m 21,7 km/h (4 Bft)
11.04.2013 06:00 7,7 C 6,5 C 100 % 997,1 hPa 0,0 l/m 0,00 h 0,00 h 0,0 UV-I 0 W/m 16,9 km/h (3 Bft)
11.04.2013 07:00 8,5 C 7,2 C 100 % 996,7 hPa 0,0 l/m 0,00 h 0,00 h 0,0 UV-I 11 W/m 10,7 km/h (2 Bft)
11.04.2013 08:00 9,7 C 8,6 C 100 % 997,0 hPa 0,0 l/m 0,00 h 0,03 h 0,0 UV-I 29 W/m 8,0 km/h (2 Bft)
11.04.2013 09:00 10,9 C 9,9 C 99 % 997,2 hPa 0,0 l/m 0,00 h 0,10 h 0,0 UV-I 94 W/m 13,2 km/h (3 Bft)
11.04.2013 10:00 12,3 C 11,0 C 91 % 997,6 hPa 0,0 l/m 0,00 h 0,30 h 0,0 UV-I 124 W/m 18,9 km/h (3 Bft)
11.04.2013 11:00 11,9 C 10,8 C 95 % 998,0 hPa 0,0 l/m 0,00 h 0,00 h 0,0 UV-I 123 W/m 7,7 km/h (2 Bft)
11.04.2013 12:00 12,6 C 11,6 C 84 % 998,3 hPa 0,0 l/m 0,00 h 0,17 h 0,5 UV-I 130 W/m 16,8 km/h (3 Bft)
11.04.2013 13:00 12,8 C 11,9 C 80 % 998,9 hPa 0,0 l/m 0,00 h 0,00 h 0,7 UV-I 166 W/m 19,8 km/h (4 Bft)
11.04.2013 14:00 12,9 C 12,1 C 77 % 999,3 hPa 0,0 l/m 0,07 h 0,00 h 1,1 UV-I 188 W/m 21,0 km/h (4 Bft)
11.04.2013 15:00 13,8 C 13,2 C 74 % 999,1 hPa 0,0 l/m 0,00 h 0,00 h 0,7 UV-I 192 W/m 17,5 km/h (3 Bft)
11.04.2013 16:00 14,0 C 12,8 C 73 % 998,7 hPa 0,0 l/m 0,00 h 0,00 h 0,6 UV-I 143 W/m 17,6 km/h (3 Bft)
11.04.2013 17:00 13,4 C 12,3 C 75 % 998,8 hPa 0,0 l/m 0,00 h 0,00 h 0,0 UV-I 115 W/m 15,2 km/h (3 Bft)
11.04.2013 18:00 13,2 C 12,0 C 76 % 998,8 hPa 0,0 l/m 0,00 h 0,00 h 0,0 UV-I 72 W/m 10,5 km/h (2 Bft)
11.04.2013 19:00 13,2 C 11,5 C 76 % 998,6 hPa 0,0 l/m 0,03 h 0,00 h 0,0 UV-I 38 W/m 5,5 km/h (1 Bft)
11.04.2013 20:00 12,7 C 10,7 C 78 % 998,6 hPa 0,0 l/m 0,00 h 0,00 h 0,0 UV-I 6 W/m 7,3 km/h (2 Bft)
11.04.2013 21:00 11,8 C 9,6 C 82 % 998,8 hPa 0,0 l/m 0,00 h 0,00 h 0,0 UV-I 0 W/m 2,1 km/h (1 Bft)
11.04.2013 22:00 11,2 C 9,2 C 84 % 998,8 hPa 0,0 l/m 0,00 h 0,00 h 0,0 UV-I 0 W/m 0,4 km/h (0 Bft)
11.04.2013 23:00 10,8 C 8,7 C 87 % 998,7 hPa 0,0 l/m 0,00 h 0,00 h 0,0 UV-I 0 W/m 0,9 km/h (0 Bft)
12.04.2013 00:00 9,6 C 7,6 C 88 % 998,8 hPa 0,0 l/m 0,00 h 0,00 h 0,0 UV-I 0 W/m 0,9 km/h (0 Bft)
12.04.2013 01:00 8,7 C 6,8 C 90 % 999,0 hPa 0,0 l/m 0,00 h 0,00 h 0,0 UV-I 0 W/m 0,4 km/h (0 Bft)
12.04.2013 02:00 8,2 C 6,8 C 92 % 999,2 hPa 0,0 l/m 0,00 h 0,00 h 0,0 UV-I 0 W/m 1,9 km/h (1 Bft)
12.04.2013 03:00 7,8 C 6,4 C 93 % 999,3 hPa 0,0 l/m 0,00 h 0,00 h 0,0 UV-I 0 W/m 1,3 km/h (1 Bft)
12.04.2013 04:00 7,6 C 6,2 C 94 % 1000,0 hPa 0,0 l/m 0,00 h 0,00 h 0,0 UV-I 0 W/m 2,4 km/h (1 Bft)
12.04.2013 05:00 7,5 C 6,2 C 94 % 1000,3 hPa 0,0 l/m 0,00 h 0,00 h 0,0 UV-I 0 W/m 1,3 km/h (1 Bft)
12.04.2013 06:00 7,4 C 6,2 C 94 % 1000,4 hPa 0,0 l/m 0,00 h 0,00 h 0,0 UV-I 0 W/m 0,4 km/h (0 Bft)
12.04.2013 07:00 7,5 C 6,6 C 95 % 1000,7 hPa 0,0 l/m 0,00 h 0,10 h 0,0 UV-I 13 W/m 1,5 km/h (1 Bft)
12.04.2013 08:00 8,3 C 7,0 C 96 % 1000,9 hPa 0,2 l/m 0,00 h 0,23 h 0,0 UV-I 43 W/m 8,7 km/h (2 Bft)
12.04.2013 09:00 8,9 C 7,9 C 95 % 1001,4 hPa 0,0 l/m 0,03 h 0,10 h 0,0 UV-I 98 W/m 8,0 km/h (2 Bft)
12.04.2013 10:00 11,5 C 11,9 C 85 % 1001,6 hPa 0,0 l/m 0,77 h 0,00 h 0,8 UV-I 396 W/m 19,0 km/h (3 Bft)
12.04.2013 11:00 12,8 C 12,6 C 74 % 1001,7 hPa 0,0 l/m 0,33 h 0,00 h 1,1 UV-I 312 W/m 18,1 km/h (3 Bft)
12.04.2013 12:00 13,8 C 13,7 C 69 % 1001,3 hPa 0,0 l/m 0,00 h 0,00 h 1,2 UV-I 226 W/m 17,4 km/h (3 Bft)
12.04.2013 13:00 12,8 C 11,3 C 76 % 1001,2 hPa 0,2 l/m 0,00 h 0,50 h 1,2 UV-I 182 W/m 15,8 km/h (3 Bft)
12.04.2013 14:00 13,4 C 13,3 C 75 % 1000,7 hPa 0,0 l/m 0,07 h 0,07 h 1,1 UV-I 287 W/m 19,7 km/h (3 Bft)
12.04.2013 15:00 14,2 C 14,0 C 73 % 1000,4 hPa 0,0 l/m 0,43 h 0,07 h 1,1 UV-I 413 W/m 23,6 km/h (4 Bft)
12.04.2013 16:00 15,0 C 14,6 C 68 % 1000,3 hPa 0,0 l/m 0,17 h 0,00 h 1,1 UV-I 273 W/m 19,5 km/h (3 Bft)
12.04.2013 17:00 14,0 C 12,3 C 71 % 1000,5 hPa 0,0 l/m 0,03 h 0,27 h 0,0 UV-I 70 W/m 21,8 km/h (4 Bft)
12.04.2013 18:00 11,9 C 10,8 C 76 % 1001,3 hPa 0,0 l/m 0,00 h 0,07 h 0,0 UV-I 85 W/m 19,3 km/h (3 Bft)
12.04.2013 19:00 11,8 C 10,6 C 78 % 1001,8 hPa 0,0 l/m 0,23 h 0,00 h 0,0 UV-I 45 W/m 11,4 km/h (2 Bft)
12.04.2013 20:00 11,1 C 9,3 C 83 % 1002,4 hPa 0,0 l/m 0,20 h 0,00 h 0,0 UV-I 17 W/m 10,7 km/h (2 Bft)
12.04.2013 21:00 10,4 C 8,8 C 86 % 1003,5 hPa 0,0 l/m 0,00 h 0,00 h 0,0 UV-I 0 W/m 8,5 km/h (2 Bft)
12.04.2013 22:00 10,3 C 8,9 C 85 % 1004,2 hPa 0,0 l/m 0,00 h 0,00 h 0,0 UV-I 0 W/m 8,2 km/h (2 Bft)
12.04.2013 23:00 10,0 C 8,4 C 85 % 1004,6 hPa 0,0 l/m 0,00 h 0,00 h 0,0 UV-I 0 W/m 12,4 km/h (3 Bft)
13.04.2013 00:00 9,5 C 8,1 C 84 % 1005,4 hPa 0,0 l/m 0,00 h 0,00 h 0,0 UV-I 0 W/m 12,9 km/h (3 Bft)
13.04.2013 01:00 9,4 C 8,3 C 82 % 1006,3 hPa 0,0 l/m 0,00 h 0,00 h 0,0 UV-I 0 W/m 16,0 km/h (3 Bft)
13.04.2013 02:00 9,2 C 7,8 C 85 % 1007,4 hPa 0,0 l/m 0,00 h 0,03 h 0,0 UV-I 0 W/m 15,9 km/h (3 Bft)
13.04.2013 03:00 8,8 C 7,4 C 89 % 1008,5 hPa 0,0 l/m 0,00 h 0,00 h 0,0 UV-I 0 W/m 13,7 km/h (3 Bft)
13.04.2013 04:00 8,8 C 7,7 C 91 % 1009,4 hPa 0,0 l/m 0,00 h 0,00 h 0,0 UV-I 0 W/m 10,3 km/h (2 Bft)
13.04.2013 05:00 8,9 C 7,9 C 90 % 1010,1 hPa 0,0 l/m 0,00 h 0,00 h 0,0 UV-I 0 W/m 10,8 km/h (2 Bft)
13.04.2013 06:00 8,9 C 7,9 C 90 % 1010,8 hPa 0,0 l/m 0,00 h 0,00 h 0,0 UV-I 0 W/m 10,8 km/h (2 Bft)
13.04.2013 07:00 8,8 C 7,9 C 90 % 1011,9 hPa 0,0 l/m 0,00 h 0,00 h 0,0 UV-I 7 W/m 14,1 km/h (3 Bft)
13.04.2013 08:00 8,8 C 8,1 C 88 % 1013,1 hPa 0,0 l/m 0,00 h 0,00 h 0,0 UV-I 66 W/m 18,4 km/h (3 Bft)
13.04.2013 09:00 9,1 C 8,8 C 86 % 1014,4 hPa 0,0 l/m 0,00 h 0,00 h 0,0 UV-I 133 W/m 17,4 km/h (3 Bft)
13.04.2013 10:00 10,0 C 10,5 C 84 % 1015,3 hPa 0,0 l/m 0,00 h 0,00 h 0,0 UV-I 231 W/m 15,2 km/h (3 Bft)
13.04.2013 11:00 10,7 C 11,2 C 81 % 1016,3 hPa 0,0 l/m 0,17 h 0,00 h 0,9 UV-I 276 W/m 14,9 km/h (3 Bft)
13.04.2013 12:00 12,4 C 13,2 C 74 % 1017,0 hPa 0,0 l/m 0,13 h 0,00 h 1,3 UV-I 289 W/m 15,3 km/h (3 Bft)
13.04.2013 13:00 12,0 C 10,9 C 76 % 1017,4 hPa 0,0 l/m 0,00 h 0,40 h 0,8 UV-I 154 W/m 10,6 km/h (2 Bft)
13.04.2013 14:00 12,4 C 12,6 C 76 % 1017,7 hPa 0,0 l/m 0,07 h 0,07 h 0,8 UV-I 235 W/m 6,6 km/h (2 Bft)
13.04.2013 15:00 14,4 C 14,6 C 62 % 1017,6 hPa 0,0 l/m 0,43 h 0,00 h 1,4 UV-I 466 W/m 13,0 km/h (3 Bft)
13.04.2013 16:00 15,5 C 15,8 C 52 % 1017,8 hPa 0,0 l/m 0,60 h 0,00 h 1,0 UV-I 446 W/m 18,1 km/h (3 Bft)
13.04.2013 17:00 15,3 C 14,5 C 51 % 1017,9 hPa 0,0 l/m 0,67 h 0,00 h 0,6 UV-I 317 W/m 15,9 km/h (3 Bft)
13.04.2013 18:00 15,4 C 14,4 C 53 % 1018,0 hPa 0,0 l/m 0,77 h 0,00 h 0,0 UV-I 200 W/m 13,4 km/h (3 Bft)
13.04.2013 19:00 14,6 C 12,5 C 56 % 1018,4 hPa 0,0 l/m 0,00 h 0,00 h 0,0 UV-I 33 W/m 3,4 km/h (1 Bft)
13.04.2013 20:00 13,8 C 11,5 C 60 % 1018,8 hPa 0,0 l/m 0,00 h 0,10 h 0,0 UV-I 5 W/m 2,6 km/h (1 Bft)
13.04.2013 21:00 13,3 C 11,6 C 63 % 1019,4 hPa 0,0 l/m 0,00 h 0,07 h 0,0 UV-I 0 W/m 7,1 km/h (2 Bft)
13.04.2013 22:00 13,1 C 11,1 C 69 % 1019,7 hPa 0,0 l/m 0,00 h 0,13 h 0,0 UV-I 0 W/m 8,1 km/h (2 Bft)
13.04.2013 23:00 12,3 C 10,4 C 77 % 1019,9 hPa 0,0 l/m 0,00 h 0,13 h 0,0 UV-I 0 W/m 6,1 km/h (2 Bft)
14.04.2013 00:00 12,0 C 10,4 C 81 % 1020,2 hPa 0,0 l/m 0,00 h 0,10 h 0,0 UV-I 0 W/m 5,9 km/h (2 Bft)
14.04.2013 01:00 11,9 C 10,0 C 85 % 1020,1 hPa 0,0 l/m 0,00 h 0,20 h 0,0 UV-I 0 W/m 4,8 km/h (1 Bft)
14.04.2013 02:00 11,8 C 10,2 C 87 % 1019,8 hPa 0,0 l/m 0,00 h 0,03 h 0,0 UV-I 0 W/m 9,3 km/h (2 Bft)
14.04.2013 03:00 11,9 C 10,7 C 86 % 1019,6 hPa 0,0 l/m 0,00 h 0,00 h 0,0 UV-I 0 W/m 9,2 km/h (2 Bft)
14.04.2013 04:00 12,2 C 10,8 C 85 % 1019,7 hPa 0,0 l/m 0,00 h 0,00 h 0,0 UV-I 0 W/m 7,9 km/h (2 Bft)
14.04.2013 05:00 12,1 C 10,4 C 86 % 1019,9 hPa 0,0 l/m 0,00 h 0,00 h 0,0 UV-I 0 W/m 2,8 km/h (1 Bft)
14.04.2013 06:00 12,3 C 10,9 C 86 % 1020,1 hPa 0,0 l/m 0,00 h 0,00 h 0,0 UV-I 6 W/m 5,8 km/h (1 Bft)
14.04.2013 07:00 12,6 C 11,3 C 86 % 1020,5 hPa 0,0 l/m 0,00 h 0,00 h 0,0 UV-I 30 W/m 7,3 km/h (2 Bft)
14.04.2013 08:00 13,1 C 12,4 C 85 % 1020,7 hPa 0,0 l/m 0,00 h 0,00 h 0,0 UV-I 81 W/m 10,6 km/h (2 Bft)
14.04.2013 09:00 14,1 C 13,6 C 82 % 1020,9 hPa 0,0 l/m 0,00 h 0,00 h 0,0 UV-I 102 W/m 9,1 km/h (2 Bft)
14.04.2013 10:00 15,1 C 14,6 C 78 % 1021,2 hPa 0,0 l/m 0,00 h 0,00 h 0,0 UV-I 127 W/m 10,0 km/h (2 Bft)
14.04.2013 11:00 15,8 C 15,6 C 76 % 1021,6 hPa 0,0 l/m 0,00 h 0,00 h 0,6 UV-I 166 W/m 9,0 km/h (2 Bft)
14.04.2013 12:00 17,1 C 17,6 C 71 % 1021,6 hPa 0,0 l/m 0,00 h 0,00 h 1,0 UV-I 253 W/m 11,5 km/h (2 Bft)
14.04.2013 13:00 18,2 C 18,7 C 67 % 1021,6 hPa 0,0 l/m 0,07 h 0,00 h 1,5 UV-I 311 W/m 16,0 km/h (3 Bft)
14.04.2013 14:00 19,8 C 20,3 C 63 % 1021,2 hPa 0,0 l/m 0,70 h 0,00 h 2,2 UV-I 452 W/m 12,9 km/h (3 Bft)
14.04.2013 15:00 21,6 C 21,1 C 57 % 1020,5 hPa 0,0 l/m 0,97 h 0,00 h 2,4 UV-I 597 W/m 16,6 km/h (3 Bft)
14.04.2013 16:00 22,5 C 23,3 C 56 % 1019,6 hPa 0,0 l/m 1,00 h 0,00 h 1,6 UV-I 534 W/m 19,0 km/h (3 Bft)
14.04.2013 17:00 22,9 C 22,2 C 58 % 1018,7 hPa 0,0 l/m 1,00 h 0,00 h 0,9 UV-I 414 W/m 25,8 km/h (4 Bft)
14.04.2013 18:00 22,6 C 21,1 C 58 % 1018,0 hPa 0,0 l/m 0,33 h 0,00 h 0,0 UV-I 182 W/m 24,1 km/h (4 Bft)
14.04.2013 19:00 21,7 C 19,4 C 62 % 1017,6 hPa 0,0 l/m 0,00 h 0,00 h 0,0 UV-I 52 W/m 15,9 km/h (3 Bft)
14.04.2013 20:00 20,8 C 17,9 C 60 % 1017,7 hPa 0,0 l/m 0,00 h 0,00 h 0,0 UV-I 12 W/m 12,4 km/h (3 Bft)
14.04.2013 21:00 19,7 C 15,9 C 61 % 1018,0 hPa 0,0 l/m 0,00 h 0,00 h 0,0 UV-I 0 W/m 6,7 km/h (2 Bft)
14.04.2013 22:00 18,3 C 14,7 C 66 % 1017,9 hPa 0,0 l/m 0,00 h 0,00 h 0,0 UV-I 0 W/m 7,0 km/h (2 Bft)
14.04.2013 23:00 17,1 C 13,7 C 72 % 1017,9 hPa 0,0 l/m 0,00 h 0,00 h 0,0 UV-I 0 W/m 6,5 km/h (2 Bft)
Min-Datum _ 08.04.13 08.04.13 08.04.13 11.04.13 - - - - - 08.04.13
_ Min-Zeit 07:22 06:08 15:02 07:20 - - - - - 00:00
Minimum _ 0,2 C -1,6 C 43 % 996,6 hPa - - - - - 0,0 km/h (0 Bft)
Max-Datum _ 14.04.13 14.04.13 09.04.13 14.04.13 08.04.13 08.04.13 08.04.13 14.04.13 13.04.13 08.04.13
_ Max-Zeit 17:20 16:18 08:56 11:38 21:00 10:46 19:18 14:48 15:34 12:58
Maximum _ 23,1 C 25,1 C 100 % 1021,7 hPa 1,4 l/m 0,03 h 0,03 h 2,8 UV-I 819 W/m 43,8 km/h
O-SO (6 Bft)
Durchschnitt _ 9,9 C 8,7 C 81 % 1006,4 hPa #9,2 l/m #12:16 h #16:32 h 1,0 UV-I 162 W/m 9,5 km/h (2 Bft)
© 2013 W. Hausmann